createdAt,value
2018-09-24T00:01:07.847Z,15.87
2018-09-24T00:03:36.093Z,16.20
2018-09-24T00:06:04.137Z,13.73
2018-09-24T00:08:32.277Z,14.00
2018-09-24T00:11:00.365Z,14.60
2018-09-24T00:13:28.434Z,17.23
2018-09-24T00:15:56.448Z,16.90
2018-09-24T00:18:24.515Z,19.17
2018-09-24T00:20:52.512Z,18.07
2018-09-24T00:23:20.634Z,20.43
2018-09-24T00:25:48.652Z,16.13
2018-09-24T00:28:16.909Z,17.20
2018-09-24T00:30:45.181Z,14.67
2018-09-24T00:33:13.281Z,17.37
2018-09-24T00:35:41.387Z,15.60
2018-09-24T00:38:09.523Z,16.03
2018-09-24T00:40:37.629Z,13.43
2018-09-24T00:43:05.839Z,17.60
2018-09-24T00:45:33.919Z,15.10
2018-09-24T00:48:02.309Z,18.13
2018-09-24T00:50:30.521Z,17.20
2018-09-24T00:52:58.554Z,15.00
2018-09-24T00:55:26.676Z,16.33
2018-09-24T00:57:54.725Z,19.10
2018-09-24T01:00:22.806Z,14.60
2018-09-24T01:02:50.954Z,10.63
2018-09-24T01:05:18.971Z,11.53
2018-09-24T01:07:46.972Z,8.03
2018-09-24T01:10:15.670Z,7.17
2018-09-24T01:12:44.690Z,13.73
2018-09-24T01:15:12.812Z,17.00
2018-09-24T01:17:40.811Z,11.57
2018-09-24T01:20:09.913Z,14.87
2018-09-24T01:22:37.883Z,15.53
2018-09-24T01:25:06.077Z,15.90
2018-09-24T01:27:34.290Z,16.10
2018-09-24T01:30:02.413Z,18.33
2018-09-24T01:32:30.470Z,19.70
2018-09-24T01:34:58.493Z,16.73
2018-09-24T01:37:26.580Z,11.70
2018-09-24T01:39:54.632Z,7.77
2018-09-24T01:42:22.633Z,8.30
2018-09-24T01:44:50.720Z,9.00
2018-09-24T01:47:18.892Z,7.80
2018-09-24T01:49:47.014Z,8.43
2018-09-24T01:52:14.984Z,7.37
2018-09-24T02:00:09.947Z,8.50
2018-09-24T02:02:37.975Z,11.77
2018-09-24T02:05:10.954Z,7.77
2018-09-24T02:07:38.979Z,8.97
2018-09-24T02:10:07.112Z,6.63
2018-09-24T02:12:35.124Z,8.33
2018-09-24T02:15:03.240Z,7.23
2018-09-24T02:17:31.360Z,8.30
2018-09-24T02:19:59.463Z,7.30
2018-09-24T02:22:29.518Z,7.37
2018-09-24T02:24:58.512Z,6.00
2018-09-24T02:27:26.891Z,6.20
2018-09-24T02:29:54.953Z,7.67
2018-09-24T02:32:23.047Z,9.90
2018-09-24T02:34:53.700Z,5.63
2018-09-24T02:37:22.117Z,6.13
2018-09-24T02:39:50.607Z,7.17
2018-09-24T02:42:18.586Z,8.27
2018-09-24T02:44:48.679Z,9.90
2018-09-24T02:47:16.673Z,6.60
2018-09-24T02:49:44.683Z,8.00
2018-09-24T02:52:12.721Z,7.83
2018-09-24T02:54:40.752Z,12.73
2018-09-24T02:57:08.884Z,6.37
2018-09-24T02:59:37.939Z,9.47
2018-09-24T03:02:06.011Z,8.47
2018-09-24T03:04:34.097Z,11.07
2018-09-24T03:07:02.113Z,8.97
2018-09-24T03:09:30.419Z,8.27
2018-09-24T03:11:58.552Z,8.30
2018-09-24T03:14:27.817Z,8.13
2018-09-24T03:16:55.893Z,7.33
2018-09-24T03:19:24.238Z,7.17
2018-09-24T03:21:52.742Z,7.27
2018-09-24T03:24:20.908Z,9.43
2018-09-24T03:26:49.011Z,9.57
2018-09-24T03:29:23.485Z,8.13
2018-09-24T03:31:52.151Z,8.17
2018-09-24T03:34:20.324Z,8.37
2018-09-24T03:36:49.031Z,6.20
2018-09-24T03:39:17.869Z,7.20
2018-09-24T03:41:45.999Z,5.60
2018-09-24T03:44:14.072Z,6.60
2018-09-24T03:46:42.435Z,9.93
2018-09-24T03:49:10.976Z,9.20
2018-09-24T03:51:39.433Z,5.93
2018-09-24T03:54:08.773Z,8.37
2018-09-24T03:56:36.944Z,12.97
2018-09-24T03:59:05.106Z,8.80
2018-09-24T04:01:33.166Z,5.73
2018-09-24T04:04:07.073Z,6.90
2018-09-24T04:06:40.636Z,6.53
2018-09-24T04:09:14.576Z,6.00
2018-09-24T04:11:48.482Z,7.90
2018-09-24T04:14:21.992Z,10.77
2018-09-24T04:16:55.570Z,6.67
2018-09-24T04:19:29.465Z,6.07
2018-09-24T04:22:02.908Z,8.07
2018-09-24T04:24:36.728Z,8.13
2018-09-24T04:27:10.348Z,6.73
2018-09-24T04:29:44.200Z,6.73
2018-09-24T04:32:17.733Z,9.10
2018-09-24T04:34:51.183Z,7.47
2018-09-24T04:37:24.615Z,5.83
2018-09-24T04:39:58.224Z,5.97
2018-09-24T04:42:31.631Z,8.20
2018-09-24T04:45:05.368Z,8.40
2018-09-24T04:47:38.919Z,6.73
2018-09-24T04:50:12.706Z,6.87
2018-09-24T04:52:46.348Z,7.07
2018-09-24T04:55:19.897Z,12.70
2018-09-24T04:57:53.488Z,14.30
2018-09-24T05:00:27.074Z,15.63
2018-09-24T05:03:00.531Z,13.80
2018-09-24T05:05:34.966Z,12.57
2018-09-24T05:08:09.680Z,13.50
2018-09-24T05:10:43.454Z,18.07
2018-09-24T05:13:17.052Z,14.37
2018-09-24T05:15:51.747Z,14.53
2018-09-24T05:18:25.410Z,13.27
2018-09-24T05:20:59.349Z,13.53
2018-09-24T05:23:33.078Z,10.33
2018-09-24T05:26:07.057Z,11.73
2018-09-24T05:28:40.654Z,11.57
2018-09-24T05:31:14.325Z,10.00
2018-09-24T05:33:48.199Z,9.50
2018-09-24T05:36:22.018Z,10.87
2018-09-24T05:38:55.646Z,14.53
2018-09-24T05:41:29.261Z,9.80
2018-09-24T05:44:03.003Z,9.63
2018-09-24T05:46:36.618Z,9.30
2018-09-24T05:49:10.164Z,8.80
2018-09-24T05:51:43.650Z,8.47
2018-09-24T05:54:17.418Z,13.07
2018-09-24T05:56:50.996Z,12.53
2018-09-24T05:59:24.347Z,11.90
2018-09-24T06:01:58.055Z,12.50
2018-09-24T06:04:31.717Z,13.80
2018-09-24T06:07:05.463Z,16.17
2018-09-24T06:09:39.136Z,14.77
2018-09-24T06:12:12.799Z,12.27
2018-09-24T06:14:46.440Z,15.30
2018-09-24T06:17:20.210Z,26.60
2018-09-24T06:19:53.691Z,13.60
2018-09-24T06:22:27.663Z,33.23
2018-09-24T06:25:01.165Z,27.67
2018-09-24T06:27:34.673Z,27.23
2018-09-24T06:30:08.303Z,16.17
2018-09-24T06:32:42.278Z,24.37
2018-09-24T06:35:16.139Z,20.17
2018-09-24T06:37:49.891Z,10.77
2018-09-24T06:40:24.059Z,9.67
2018-09-24T06:42:57.862Z,10.57
2018-09-24T06:45:31.522Z,10.10
2018-09-24T06:48:05.137Z,11.40
2018-09-24T06:50:38.699Z,8.80
2018-09-24T06:53:12.364Z,10.20
2018-09-24T06:55:45.944Z,15.03
2018-09-24T06:58:19.763Z,11.93
2018-09-24T07:00:53.554Z,10.37
2018-09-24T07:03:27.230Z,8.07
2018-09-24T07:06:01.072Z,9.53
2018-09-24T07:08:34.845Z,9.20
2018-09-24T07:11:08.599Z,8.73
2018-09-24T07:13:42.321Z,7.40
2018-09-24T07:16:16.180Z,7.20
2018-09-24T07:18:50.080Z,9.37
2018-09-24T07:21:23.882Z,10.00
2018-09-24T07:23:57.626Z,8.10
2018-09-24T07:26:31.296Z,5.43
2018-09-24T07:29:04.985Z,7.03
2018-09-24T07:31:38.561Z,4.53
2018-09-24T07:34:12.665Z,5.47
2018-09-24T07:36:46.478Z,7.37
2018-09-24T07:39:20.352Z,6.53
2018-09-24T07:41:54.439Z,5.53
2018-09-24T07:44:28.383Z,5.10
2018-09-24T07:47:01.996Z,5.77
2018-09-24T07:49:36.217Z,4.43
2018-09-24T07:52:09.869Z,5.80
2018-09-24T07:54:43.683Z,5.40
2018-09-24T07:57:17.523Z,6.10
2018-09-24T07:59:51.767Z,5.65
2018-09-24T08:02:25.576Z,4.73
2018-09-24T08:04:59.566Z,5.43
2018-09-24T08:07:33.262Z,5.77
2018-09-24T08:10:07.196Z,5.57
2018-09-24T08:12:43.037Z,5.78
2018-09-24T08:15:27.774Z,5.12
2018-09-24T08:18:07.591Z,4.00
2018-09-24T08:20:55.047Z,5.47
2018-09-24T08:23:40.339Z,9.63
2018-09-24T08:26:26.882Z,5.65
2018-09-24T08:29:07.214Z,5.28
2018-09-24T08:31:49.662Z,5.20
2018-09-24T08:34:25.358Z,4.80
2018-09-24T08:36:59.288Z,4.53
2018-09-24T08:39:33.289Z,5.03
2018-09-24T08:42:06.884Z,6.37
2018-09-24T08:44:40.954Z,5.00
2018-09-24T08:47:14.895Z,4.62
2018-09-24T08:49:48.597Z,4.55
2018-09-24T08:52:22.815Z,4.70
2018-09-24T08:54:56.318Z,4.78
2018-09-24T08:57:30.257Z,5.50
2018-09-24T09:00:04.287Z,7.75
2018-09-24T09:02:38.525Z,4.67
2018-09-24T09:05:12.110Z,4.83
2018-09-24T09:07:45.834Z,5.33
2018-09-24T09:10:19.546Z,5.42
2018-09-24T09:12:53.153Z,4.33
2018-09-24T09:15:26.770Z,5.05
2018-09-24T09:18:00.382Z,5.22
2018-09-24T09:20:33.965Z,6.90
2018-09-24T09:23:07.604Z,5.62
2018-09-24T09:25:41.269Z,4.37
2018-09-24T09:28:15.095Z,6.28
2018-09-24T09:30:48.875Z,8.03
2018-09-24T09:33:22.578Z,3.72
2018-09-24T09:35:56.224Z,4.58
2018-09-24T09:38:30.016Z,4.87
2018-09-24T09:41:03.682Z,3.67
2018-09-24T09:43:38.095Z,8.60
2018-09-24T09:46:11.925Z,3.85
2018-09-24T09:48:46.030Z,4.50
2018-09-24T09:51:19.789Z,5.35
2018-09-24T09:53:54.568Z,4.40
2018-09-24T09:56:28.604Z,5.63
2018-09-24T09:59:02.419Z,4.85
2018-09-24T10:01:36.172Z,4.25
2018-09-24T10:04:10.170Z,5.58
2018-09-24T10:06:43.832Z,4.90
2018-09-24T10:09:17.535Z,4.37
2018-09-24T10:11:51.225Z,3.72
2018-09-24T10:14:24.773Z,4.30
2018-09-24T10:16:58.893Z,4.08
2018-09-24T10:19:32.607Z,3.58
2018-09-24T10:22:06.653Z,4.22
2018-09-24T10:24:40.575Z,3.90
2018-09-24T10:27:14.518Z,4.72
2018-09-24T10:29:48.155Z,4.95
2018-09-24T10:32:22.085Z,4.85
2018-09-24T10:34:55.818Z,6.05
2018-09-24T10:37:29.753Z,4.80
2018-09-24T10:40:03.385Z,4.50
2018-09-24T10:42:37.214Z,6.62
2018-09-24T10:45:12.515Z,4.53
2018-09-24T10:47:46.432Z,3.77
2018-09-24T10:50:20.055Z,3.90
2018-09-24T10:52:53.590Z,4.15
2018-09-24T10:55:27.077Z,4.53
2018-09-24T10:58:00.681Z,5.00
2018-09-24T11:00:34.095Z,3.77
2018-09-24T11:03:07.690Z,3.62
2018-09-24T11:05:41.484Z,3.10
2018-09-24T11:08:15.034Z,4.15
2018-09-24T11:10:48.809Z,5.75
2018-09-24T11:13:22.642Z,4.62
2018-09-24T11:15:56.493Z,4.62
2018-09-24T11:18:29.852Z,4.10
2018-09-24T11:21:03.584Z,4.30
2018-09-24T11:23:37.277Z,4.83
2018-09-24T11:26:10.812Z,5.45
2018-09-24T11:28:44.774Z,6.90
2018-09-24T11:31:18.536Z,5.00
2018-09-24T11:33:52.162Z,4.87
2018-09-24T11:36:26.161Z,3.95
2018-09-24T11:38:59.992Z,3.52
2018-09-24T11:41:33.612Z,4.95
2018-09-24T11:44:07.531Z,3.45
2018-09-24T11:46:41.380Z,2.83
2018-09-24T11:49:15.310Z,8.05
2018-09-24T11:51:49.625Z,5.87
2018-09-24T11:54:24.789Z,6.30
2018-09-24T11:56:59.766Z,3.10
2018-09-24T11:59:34.927Z,3.95
2018-09-24T12:02:09.697Z,4.00
2018-09-24T12:04:43.300Z,5.45
2018-09-24T12:07:17.865Z,5.33
2018-09-24T12:09:51.575Z,10.30
2018-09-24T12:12:25.809Z,9.60
2018-09-24T12:14:59.345Z,7.50
2018-09-24T12:17:32.991Z,10.18
2018-09-24T12:20:06.753Z,8.28
2018-09-24T12:22:40.316Z,12.68
2018-09-24T12:25:13.817Z,9.97
2018-09-24T12:27:47.554Z,12.50
2018-09-24T12:30:21.327Z,11.17
2018-09-24T12:32:55.024Z,16.20
2018-09-24T12:35:28.559Z,21.67
2018-09-24T12:38:02.146Z,16.00
2018-09-24T12:40:35.584Z,23.00
2018-09-24T12:43:09.082Z,18.47
2018-09-24T12:45:43.425Z,15.93
2018-09-24T12:48:17.227Z,16.77
2018-09-24T12:50:51.056Z,19.97
2018-09-24T12:53:24.478Z,15.47
2018-09-24T12:55:58.197Z,15.73
2018-09-24T12:58:31.784Z,19.20
2018-09-24T13:01:06.016Z,19.50
2018-09-24T13:03:39.814Z,20.77
2018-09-24T13:06:13.560Z,21.23
2018-09-24T13:08:47.131Z,20.37
2018-09-24T13:11:20.790Z,15.83
2018-09-24T13:13:54.401Z,9.63
2018-09-24T13:16:28.172Z,16.93
2018-09-24T13:19:01.970Z,18.70
2018-09-24T13:21:35.616Z,14.00
2018-09-24T13:24:09.316Z,11.30
2018-09-24T13:26:43.174Z,19.93
2018-09-24T13:29:17.080Z,19.70
2018-09-24T13:31:51.050Z,25.87
2018-09-24T13:34:25.013Z,8.67
2018-09-24T13:36:58.636Z,9.40
2018-09-24T13:39:32.223Z,12.83
2018-09-24T13:42:05.955Z,7.53
2018-09-24T13:44:39.548Z,7.63
2018-09-24T13:47:13.111Z,7.73
2018-09-24T13:49:46.674Z,7.00
2018-09-24T13:52:20.211Z,10.73
2018-09-24T13:54:53.812Z,4.40
2018-09-24T13:57:27.496Z,7.27
2018-09-24T14:00:01.010Z,11.07
2018-09-24T14:02:34.788Z,4.40
2018-09-24T14:05:08.602Z,5.30
2018-09-24T14:07:42.365Z,6.53
2018-09-24T14:10:15.838Z,5.03
2018-09-24T14:12:49.606Z,10.23
2018-09-24T14:15:23.512Z,4.70
2018-09-24T14:17:57.438Z,3.77
2018-09-24T14:20:31.169Z,4.53
2018-09-24T14:23:04.962Z,6.00
2018-09-24T14:25:38.579Z,4.30
2018-09-24T14:28:12.486Z,2.10
2018-09-24T14:30:46.157Z,4.17
2018-09-24T14:33:19.804Z,4.43
2018-09-24T14:35:53.597Z,3.07
2018-09-24T14:38:27.233Z,6.33
2018-09-24T14:41:00.919Z,6.77
2018-09-24T14:43:34.662Z,2.80
2018-09-24T14:46:08.410Z,2.07
2018-09-24T14:48:42.203Z,1.20
2018-09-24T14:51:15.843Z,1.10
2018-09-24T14:53:49.460Z,2.03
2018-09-24T14:56:23.062Z,2.40
2018-09-24T14:58:56.622Z,1.80
2018-09-24T15:01:30.343Z,5.77
2018-09-24T15:04:04.044Z,1.10
2018-09-24T15:06:37.891Z,3.93
2018-09-24T15:09:12.909Z,2.13
2018-09-24T15:11:46.706Z,1.10
2018-09-24T15:14:20.382Z,2.40
2018-09-24T15:16:54.118Z,5.50
2018-09-24T15:19:27.837Z,4.30
2018-09-24T15:22:01.481Z,0.80
2018-09-24T15:24:35.147Z,0.90
2018-09-24T15:27:08.693Z,1.00
2018-09-24T15:29:42.711Z,0.90
2018-09-24T15:32:16.289Z,1.10
2018-09-24T15:34:50.113Z,1.67
2018-09-24T15:37:24.303Z,0.90
2018-09-24T15:39:58.037Z,1.10
2018-09-24T15:42:31.757Z,1.97
2018-09-24T15:45:05.552Z,1.00
2018-09-24T15:47:39.126Z,1.40
2018-09-24T15:50:12.786Z,1.73
2018-09-24T15:52:46.708Z,1.50
2018-09-24T15:55:20.724Z,1.77
2018-09-24T15:57:54.354Z,1.23
2018-09-24T16:00:28.296Z,1.93
2018-09-24T16:03:02.172Z,3.73
2018-09-24T16:05:36.096Z,3.03
2018-09-24T16:08:09.780Z,2.27
2018-09-24T16:10:43.359Z,1.50
2018-09-24T16:13:17.089Z,2.20
2018-09-24T16:15:51.018Z,2.13
2018-09-24T16:18:24.776Z,8.13
2018-09-24T16:20:58.802Z,1.60
2018-09-24T16:23:32.604Z,2.17
2018-09-24T16:26:06.185Z,2.20
2018-09-24T16:28:39.957Z,4.03
2018-09-24T16:31:14.301Z,5.33
2018-09-24T16:33:48.731Z,1.67
2018-09-24T16:36:22.767Z,2.17
2018-09-24T16:38:56.870Z,1.53
2018-09-24T16:41:30.728Z,1.73
2018-09-24T16:44:04.606Z,2.33
2018-09-24T16:46:38.674Z,1.50
2018-09-24T16:49:12.352Z,3.17
2018-09-24T16:51:46.202Z,2.37
2018-09-24T16:54:20.035Z,2.37
2018-09-24T16:56:53.776Z,1.30
2018-09-24T16:59:27.543Z,1.30
2018-09-24T17:02:01.380Z,1.40
2018-09-24T17:04:34.896Z,1.57
2018-09-24T17:07:08.573Z,1.40
2018-09-24T17:09:42.248Z,4.77
2018-09-24T17:12:15.849Z,2.50
2018-09-24T17:14:49.718Z,2.20
2018-09-24T17:17:23.420Z,3.17
2018-09-24T17:19:57.142Z,1.47
2018-09-24T17:22:30.896Z,1.50
2018-09-24T17:25:04.636Z,1.63
2018-09-24T17:27:38.832Z,1.77
2018-09-24T17:30:12.821Z,2.93
2018-09-24T17:32:46.797Z,4.50
2018-09-24T17:35:20.856Z,2.80
2018-09-24T17:37:54.731Z,4.17
2018-09-24T17:40:29.084Z,3.87
2018-09-24T17:43:03.020Z,2.23
2018-09-24T17:45:36.785Z,2.33
2018-09-24T17:48:10.805Z,2.17
2018-09-24T17:50:44.448Z,2.40
2018-09-24T17:53:18.144Z,1.77
2018-09-24T17:55:51.746Z,3.30
2018-09-24T17:58:25.403Z,2.60
2018-09-24T18:00:59.142Z,2.27
2018-09-24T18:03:32.928Z,2.37
2018-09-24T18:06:06.605Z,2.30
2018-09-24T18:08:40.289Z,2.30
2018-09-24T18:11:14.067Z,2.77
2018-09-24T18:13:47.910Z,3.37
2018-09-24T18:16:21.476Z,3.13
2018-09-24T18:18:55.065Z,2.97
2018-09-24T18:21:28.703Z,4.03
2018-09-24T18:24:02.576Z,3.93
2018-09-24T18:26:36.206Z,5.03
2018-09-24T18:29:10.033Z,4.37
2018-09-24T18:31:44.135Z,4.27
2018-09-24T18:34:18.091Z,6.47
2018-09-24T18:36:52.128Z,3.60
2018-09-24T18:39:26.180Z,5.33
2018-09-24T18:41:59.899Z,4.77
2018-09-24T18:44:34.047Z,5.10
2018-09-24T18:47:08.238Z,5.83
2018-09-24T18:49:42.219Z,4.30
2018-09-24T18:52:16.020Z,4.27
2018-09-24T18:54:49.933Z,4.47
2018-09-24T18:57:23.544Z,5.43
2018-09-24T18:59:57.245Z,4.50
2018-09-24T19:02:31.399Z,5.30
2018-09-24T19:05:05.747Z,4.57
2018-09-24T19:07:39.765Z,4.83
2018-09-24T19:10:13.738Z,4.27
2018-09-24T19:12:48.022Z,4.13
2018-09-24T19:15:22.246Z,3.77
2018-09-24T19:17:56.535Z,4.93
2018-09-24T19:20:30.933Z,5.03
2018-09-24T19:23:04.851Z,4.50
2018-09-24T19:25:39.039Z,4.53
2018-09-24T19:28:13.017Z,5.43
2018-09-24T19:30:46.690Z,4.03
2018-09-24T19:33:20.473Z,4.30
2018-09-24T19:35:54.471Z,5.27
2018-09-24T19:38:28.359Z,4.43
2018-09-24T19:41:02.167Z,4.57
2018-09-24T19:43:36.068Z,4.27
2018-09-24T19:46:09.681Z,4.80
2018-09-24T19:48:43.440Z,3.67
2018-09-24T19:51:16.920Z,4.63
2018-09-24T19:53:50.513Z,4.30
2018-09-24T19:56:24.213Z,5.10
2018-09-24T19:58:58.132Z,6.27
2018-09-24T20:01:31.730Z,4.33
2018-09-24T20:04:05.327Z,4.40
2018-09-24T20:06:38.856Z,4.30
2018-09-24T20:09:13.726Z,4.73
2018-09-24T20:11:47.524Z,4.80
2018-09-24T20:14:21.187Z,4.53
2018-09-24T20:16:54.832Z,4.83
2018-09-24T20:19:28.468Z,5.53
2018-09-24T20:22:02.020Z,4.77
2018-09-24T20:24:35.380Z,5.30
2018-09-24T20:27:08.951Z,10.13
2018-09-24T20:29:42.527Z,3.97
2018-09-24T20:32:16.040Z,4.83
2018-09-24T20:34:49.564Z,4.10
2018-09-24T20:37:23.149Z,4.83
2018-09-24T20:39:56.794Z,3.93
2018-09-24T20:42:30.785Z,3.80
2018-09-24T20:45:04.339Z,3.13
2018-09-24T20:47:37.952Z,3.97
2018-09-24T20:50:11.601Z,4.03
2018-09-24T20:52:45.597Z,4.70
2018-09-24T20:55:19.178Z,5.70
2018-09-24T20:57:53.050Z,4.83
2018-09-24T21:00:26.978Z,5.67
2018-09-24T21:03:00.823Z,3.87
2018-09-24T21:05:34.777Z,3.60
2018-09-24T21:08:08.368Z,3.27
2018-09-24T21:10:42.033Z,3.33
2018-09-24T21:13:15.860Z,1.73
2018-09-24T21:15:49.418Z,1.57
2018-09-24T21:18:23.248Z,1.70
2018-09-24T21:20:56.647Z,1.60
2018-09-24T21:23:30.496Z,1.87
2018-09-24T21:26:04.037Z,3.57
2018-09-24T21:28:37.909Z,2.43
2018-09-24T21:31:11.812Z,1.80
2018-09-24T21:33:45.454Z,1.43
2018-09-24T21:36:19.108Z,2.63
2018-09-24T21:38:53.045Z,1.30
2018-09-24T21:41:26.566Z,1.00
2018-09-24T21:44:00.105Z,1.57
2018-09-24T21:46:33.868Z,1.40
2018-09-24T21:49:07.318Z,1.13
2018-09-24T21:51:40.939Z,1.40
2018-09-24T21:54:14.789Z,1.30
2018-09-24T21:56:48.461Z,1.23
2018-09-24T21:59:22.112Z,1.67
2018-09-24T22:01:55.828Z,1.23
2018-09-24T22:04:29.606Z,1.50
2018-09-24T22:07:03.130Z,2.07
2018-09-24T22:09:36.912Z,1.53
2018-09-24T22:12:10.631Z,2.90
2018-09-24T22:14:44.182Z,1.40
2018-09-24T22:17:17.826Z,2.80
2018-09-24T22:19:51.449Z,2.13
2018-09-24T22:22:25.147Z,2.20
2018-09-24T22:24:58.850Z,2.67
2018-09-24T22:27:32.526Z,2.73
2018-09-24T22:30:06.178Z,3.60
2018-09-24T22:32:39.864Z,2.17
2018-09-24T22:35:13.532Z,2.33
2018-09-24T22:37:47.223Z,2.03
2018-09-24T22:40:20.973Z,2.93
2018-09-24T22:42:54.691Z,3.73
2018-09-24T22:45:28.549Z,2.60
2018-09-24T22:48:02.283Z,2.50
2018-09-24T22:50:36.118Z,2.50
2018-09-24T22:53:09.646Z,3.17
2018-09-24T22:55:43.301Z,5.47
2018-09-24T22:58:17.026Z,3.10
2018-09-24T23:00:50.910Z,2.60
2018-09-24T23:03:24.464Z,2.40
2018-09-24T23:05:58.142Z,5.40
2018-09-24T23:08:31.872Z,2.90
2018-09-24T23:11:05.554Z,2.73
2018-09-24T23:13:39.132Z,2.80
2018-09-24T23:16:12.921Z,2.83
2018-09-24T23:18:46.434Z,2.97
2018-09-24T23:21:20.163Z,2.67
2018-09-24T23:23:54.600Z,3.37
2018-09-24T23:26:28.222Z,2.50
2018-09-24T23:29:01.978Z,3.13
2018-09-24T23:31:35.649Z,2.60
2018-09-24T23:34:09.364Z,3.03
2018-09-24T23:36:42.953Z,3.90
2018-09-24T23:39:16.681Z,3.07
2018-09-24T23:41:50.448Z,4.20
2018-09-24T23:44:24.089Z,3.93
2018-09-24T23:46:57.576Z,3.37
2018-09-24T23:49:31.116Z,3.47
2018-09-24T23:52:04.924Z,3.33
2018-09-24T23:54:38.565Z,3.67
2018-09-24T23:57:12.415Z,3.63
2018-09-24T23:59:46.118Z,2.73
